createdAt,value
2019-05-19T00:01:40.388Z,94282.19
2019-05-19T00:04:08.987Z,94285.45
2019-05-19T00:06:37.619Z,94285.64
2019-05-19T00:09:06.651Z,94282.39
2019-05-19T00:11:35.184Z,94279.77
2019-05-19T00:14:03.808Z,94281.33
2019-05-19T00:16:32.608Z,94277.18
2019-05-19T00:19:01.266Z,94282.33
2019-05-19T00:21:29.909Z,94275.99
2019-05-19T00:23:59.875Z,94283.53
2019-05-19T00:26:28.581Z,94286.07
2019-05-19T00:28:57.140Z,94278.19
2019-05-19T00:31:25.782Z,94282.83
2019-05-19T00:33:54.384Z,94277.70
2019-05-19T00:36:22.969Z,94283.13
2019-05-19T00:38:51.534Z,94279.61
2019-05-19T00:41:20.197Z,94279.38
2019-05-19T00:43:49.108Z,94282.05
2019-05-19T00:46:17.659Z,94287.93
2019-05-19T00:48:46.436Z,94291.05
2019-05-19T00:51:15.359Z,94287.80
2019-05-19T00:53:43.915Z,94281.19
2019-05-19T00:56:12.988Z,94284.08
2019-05-19T00:58:42.028Z,94284.20
2019-05-19T01:01:10.724Z,94279.94
2019-05-19T01:03:39.326Z,94278.94
2019-05-19T01:06:08.043Z,94280.31
2019-05-19T01:08:36.675Z,94281.44
2019-05-19T01:11:05.349Z,94282.95
2019-05-19T01:13:33.997Z,94280.83
2019-05-19T01:16:02.640Z,94279.57
2019-05-19T01:18:31.239Z,94288.12
2019-05-19T01:21:00.079Z,94284.61
2019-05-19T01:23:28.762Z,94274.94
2019-05-19T01:25:57.439Z,94273.32
2019-05-19T01:28:26.078Z,94279.59
2019-05-19T01:30:54.743Z,94277.31
2019-05-19T01:33:23.513Z,94272.92
2019-05-19T01:35:52.176Z,94279.58
2019-05-19T01:38:20.803Z,94276.84
2019-05-19T01:40:49.448Z,94268.79
2019-05-19T01:43:18.023Z,94269.17
2019-05-19T01:45:46.650Z,94275.95
2019-05-19T01:48:15.264Z,94274.94
2019-05-19T01:50:43.958Z,94272.05
2019-05-19T01:53:12.520Z,94267.80
2019-05-19T01:55:41.046Z,94259.03
2019-05-19T01:58:09.744Z,94258.25
2019-05-19T02:00:38.496Z,94251.61
2019-05-19T02:03:07.171Z,94253.37
2019-05-19T02:05:35.811Z,94256.26
2019-05-19T02:08:04.483Z,94257.65
2019-05-19T02:10:33.151Z,94253.51
2019-05-19T02:13:05.038Z,94255.76
2019-05-19T02:15:32.085Z,94255.23
2019-05-19T02:18:00.771Z,94260.59
2019-05-19T02:20:33.104Z,94263.46
2019-05-19T02:22:59.771Z,94266.19
2019-05-19T02:25:28.517Z,94272.46
2019-05-19T02:27:57.086Z,94276.50
2019-05-19T02:30:26.260Z,94273.37
2019-05-19T02:32:54.837Z,94268.81
2019-05-19T02:35:23.592Z,94271.39
2019-05-19T02:37:52.203Z,94268.06
2019-05-19T02:40:21.006Z,94275.90
2019-05-19T02:42:51.380Z,94273.62
2019-05-19T02:45:20.183Z,94277.74
2019-05-19T02:47:50.159Z,94273.77
2019-05-19T02:50:18.800Z,94282.41
2019-05-19T02:52:50.256Z,94284.97
2019-05-19T02:55:20.611Z,94278.16
2019-05-19T02:57:51.015Z,94282.19
2019-05-19T03:00:22.634Z,94285.42
2019-05-19T03:02:51.239Z,94282.67
2019-05-19T03:05:19.763Z,94289.97
2019-05-19T03:07:48.341Z,94287.72
2019-05-19T03:10:16.987Z,94289.00
2019-05-19T03:12:45.641Z,94284.23
2019-05-19T03:15:14.342Z,94291.79
2019-05-19T03:17:42.906Z,94291.27
2019-05-19T03:20:11.558Z,94292.92
2019-05-19T03:22:40.190Z,94295.69
2019-05-19T03:25:08.757Z,94298.08
2019-05-19T03:27:37.335Z,94308.41
2019-05-19T03:30:27.450Z,94307.41
2019-05-19T03:33:04.854Z,94317.10
2019-05-19T03:35:33.372Z,94307.95
2019-05-19T03:38:01.937Z,94300.91
2019-05-19T03:40:30.504Z,94302.27
2019-05-19T03:42:59.184Z,94305.22
2019-05-19T03:45:27.812Z,94310.50
2019-05-19T03:47:56.438Z,94308.30
2019-05-19T03:50:25.151Z,94313.99
2019-05-19T03:52:53.848Z,94318.23
2019-05-19T03:55:22.473Z,94317.19
2019-05-19T03:57:51.075Z,94315.87
2019-05-19T04:00:19.800Z,94319.31
2019-05-19T04:02:48.367Z,94314.94
2019-05-19T04:05:17.140Z,94319.36
2019-05-19T04:07:45.775Z,94319.38
2019-05-19T04:10:15.212Z,94323.25
2019-05-19T04:12:43.923Z,94323.00
2019-05-19T04:15:13.424Z,94327.85
2019-05-19T04:17:41.985Z,94321.51
2019-05-19T04:20:10.679Z,94323.52
2019-05-19T04:22:39.353Z,94326.22
2019-05-19T04:25:08.059Z,94318.00
2019-05-19T04:27:36.822Z,94330.16
2019-05-19T04:30:07.748Z,94327.36
2019-05-19T04:32:36.311Z,94333.34
2019-05-19T04:35:06.380Z,94332.54
2019-05-19T04:37:35.064Z,94328.09
2019-05-19T04:40:04.690Z,94329.30
2019-05-19T04:42:33.281Z,94320.41
2019-05-19T04:45:01.911Z,94321.08
2019-05-19T04:47:30.469Z,94315.56
2019-05-19T04:49:58.994Z,94316.86
2019-05-19T04:52:27.567Z,94319.84
2019-05-19T04:54:56.251Z,94336.48
2019-05-19T04:57:24.887Z,94332.92
2019-05-19T04:59:53.461Z,94333.17
2019-05-19T05:02:22.090Z,94336.36
2019-05-19T05:04:50.763Z,94325.09
2019-05-19T05:07:19.325Z,94324.92
2019-05-19T05:09:47.960Z,94320.72
2019-05-19T05:12:16.672Z,94319.62
2019-05-19T05:14:45.225Z,94320.89
2019-05-19T05:17:13.787Z,94322.25
2019-05-19T05:19:42.459Z,94319.11
2019-05-19T05:22:21.700Z,94324.57
2019-05-19T05:24:41.319Z,94323.14
2019-05-19T05:27:10.120Z,94323.41
2019-05-19T05:29:38.754Z,94320.67
2019-05-19T05:32:07.318Z,94318.64
2019-05-19T05:34:35.945Z,94312.23
2019-05-19T05:37:04.579Z,94312.33
2019-05-19T05:39:33.238Z,94325.33
2019-05-19T05:42:01.848Z,94320.33
2019-05-19T05:44:30.480Z,94316.11
2019-05-19T05:46:59.108Z,94313.99
2019-05-19T05:49:27.653Z,94323.13
2019-05-19T05:51:56.275Z,94314.16
2019-05-19T05:54:25.090Z,94316.50
2019-05-19T05:56:53.722Z,94319.33
2019-05-19T05:59:22.294Z,94314.79
2019-05-19T06:01:50.799Z,94313.28
2019-05-19T06:04:19.470Z,94304.84
2019-05-19T06:06:48.038Z,94311.40
2019-05-19T06:09:16.612Z,94312.02
2019-05-19T06:11:45.394Z,94325.89
2019-05-19T06:14:14.020Z,94325.89
2019-05-19T06:16:42.583Z,94322.72
2019-05-19T06:19:11.244Z,94319.62
2019-05-19T06:21:39.798Z,94322.94
2019-05-19T06:24:08.286Z,94315.72
2019-05-19T06:26:36.910Z,94318.73
2019-05-19T06:29:05.645Z,94310.17
2019-05-19T06:31:34.205Z,94308.58
2019-05-19T06:34:02.733Z,94306.70
2019-05-19T06:36:31.365Z,94311.63
2019-05-19T06:39:00.153Z,94312.56
2019-05-19T06:41:28.861Z,94309.92
2019-05-19T06:43:57.423Z,94307.68
2019-05-19T06:46:26.085Z,94301.53
2019-05-19T06:48:54.751Z,94294.83
2019-05-19T06:51:23.316Z,94303.15
2019-05-19T06:53:51.886Z,94298.23
2019-05-19T06:56:20.491Z,94298.27
2019-05-19T06:58:49.122Z,94294.94
2019-05-19T07:01:17.683Z,94288.84
2019-05-19T07:03:46.503Z,94289.92
2019-05-19T07:06:15.066Z,94295.00
2019-05-19T07:08:43.694Z,94283.41
2019-05-19T07:11:12.362Z,94277.40
2019-05-19T07:13:41.045Z,94284.42
2019-05-19T07:16:09.569Z,94293.38
2019-05-19T07:18:38.235Z,94294.30
2019-05-19T07:21:06.806Z,94296.30
2019-05-19T07:23:35.296Z,94292.53
2019-05-19T07:26:03.986Z,94285.47
2019-05-19T07:28:32.623Z,94287.69
2019-05-19T07:31:01.254Z,94293.73
2019-05-19T07:33:30.587Z,94290.23
2019-05-19T07:35:59.254Z,94285.88
2019-05-19T07:38:27.895Z,94276.80
2019-05-19T07:40:56.557Z,94271.64
2019-05-19T07:43:25.188Z,94271.16
2019-05-19T07:45:53.752Z,94264.33
2019-05-19T07:48:22.415Z,94264.11
2019-05-19T07:50:51.043Z,94262.33
2019-05-19T07:53:19.680Z,94264.70
2019-05-19T07:55:48.287Z,94268.11
2019-05-19T07:58:16.787Z,94271.20
2019-05-19T08:00:45.408Z,94258.70
2019-05-19T08:03:14.074Z,94266.41
2019-05-19T08:05:42.624Z,94254.53
2019-05-19T08:08:11.199Z,94258.03
2019-05-19T08:10:39.875Z,94255.69
2019-05-19T08:13:08.588Z,94257.25
2019-05-19T08:15:37.084Z,94261.47
2019-05-19T08:18:05.758Z,94263.31
2019-05-19T08:20:34.496Z,94253.58
2019-05-19T08:23:03.087Z,94247.70
2019-05-19T08:25:31.739Z,94245.63
2019-05-19T08:28:08.349Z,94246.44
2019-05-19T08:30:30.765Z,94241.09
2019-05-19T08:32:59.303Z,94242.59
2019-05-19T08:35:28.026Z,94239.97
2019-05-19T08:37:56.789Z,94242.43
2019-05-19T08:40:25.387Z,94229.50
2019-05-19T08:42:53.880Z,94222.91
2019-05-19T08:45:22.501Z,94227.59
2019-05-19T08:47:51.169Z,94234.27
2019-05-19T08:50:19.803Z,94233.16
2019-05-19T08:52:48.291Z,94227.20
2019-05-19T08:55:17.049Z,94224.20
2019-05-19T08:57:45.584Z,94225.67
2019-05-19T09:00:14.442Z,94225.34
2019-05-19T09:02:43.112Z,94230.44
2019-05-19T09:05:12.242Z,94221.02
2019-05-19T09:07:40.727Z,94226.45
2019-05-19T09:10:09.771Z,94224.42
2019-05-19T09:12:38.831Z,94221.25
2019-05-19T09:15:08.068Z,94225.05
2019-05-19T09:17:36.606Z,94218.25
2019-05-19T09:20:06.231Z,94210.13
2019-05-19T09:22:34.868Z,94209.07
2019-05-19T09:25:04.539Z,94217.08
2019-05-19T09:27:33.080Z,94207.45
2019-05-19T09:30:01.767Z,94206.81
2019-05-19T09:32:30.452Z,94205.44
2019-05-19T09:34:58.951Z,94203.80
2019-05-19T09:37:27.509Z,94204.91
2019-05-19T09:39:56.171Z,94200.91
2019-05-19T09:42:24.810Z,94189.55
2019-05-19T09:44:53.390Z,94194.14
2019-05-19T09:47:21.994Z,94189.20
2019-05-19T09:49:50.648Z,94185.13
2019-05-19T09:52:19.331Z,94179.45
2019-05-19T09:54:47.931Z,94181.67
2019-05-19T09:57:16.565Z,94182.46
2019-05-19T09:59:45.199Z,94176.40
2019-05-19T10:02:13.873Z,94180.05
2019-05-19T10:04:42.424Z,94170.89
2019-05-19T10:07:11.132Z,94165.67
2019-05-19T10:09:58.189Z,94148.83
2019-05-19T10:12:26.907Z,94143.70
2019-05-19T10:14:55.524Z,94137.95
2019-05-19T10:17:24.185Z,94132.13
2019-05-19T10:19:52.788Z,94134.33
2019-05-19T10:22:21.371Z,94133.48
2019-05-19T10:25:10.254Z,94134.62
2019-05-19T10:27:21.742Z,94133.81
2019-05-19T10:29:50.410Z,94127.77
2019-05-19T10:32:19.018Z,94131.27
2019-05-19T10:34:47.662Z,94123.92
2019-05-19T10:37:16.296Z,94119.88
2019-05-19T10:39:44.812Z,94133.64
2019-05-19T10:42:13.495Z,94124.49
2019-05-19T10:44:42.133Z,94125.20
2019-05-19T10:47:10.781Z,94118.91
2019-05-19T10:49:39.399Z,94124.70
2019-05-19T10:52:07.953Z,94122.07
2019-05-19T10:54:36.560Z,94113.33
2019-05-19T10:57:05.210Z,94106.46
2019-05-19T10:59:33.950Z,94101.85
2019-05-19T11:02:02.583Z,94097.19
2019-05-19T11:04:31.081Z,94086.91
2019-05-19T11:06:59.625Z,94088.58
2019-05-19T11:09:28.262Z,94092.06
2019-05-19T11:11:56.895Z,94097.99
2019-05-19T11:14:25.464Z,94092.88
2019-05-19T11:16:54.267Z,94088.27
2019-05-19T11:19:22.931Z,94094.23
2019-05-19T11:21:51.560Z,94078.90
2019-05-19T11:24:20.047Z,94081.60
2019-05-19T11:26:48.713Z,94101.07
2019-05-19T11:29:17.338Z,94078.25
2019-05-19T11:31:45.968Z,94078.08
2019-05-19T11:34:14.738Z,94076.41
2019-05-19T11:36:43.370Z,94058.47
2019-05-19T11:39:11.867Z,94062.02
2019-05-19T11:41:40.387Z,94064.60
2019-05-19T11:44:09.036Z,94065.13
2019-05-19T11:46:37.649Z,94059.65
2019-05-19T11:49:06.253Z,94070.26
2019-05-19T11:51:34.740Z,94064.92
2019-05-19T11:54:03.426Z,94060.61
2019-05-19T11:56:32.127Z,94071.11
2019-05-19T11:59:00.656Z,94070.49
2019-05-19T12:01:29.270Z,94075.06
2019-05-19T12:03:57.942Z,94068.50
2019-05-19T12:06:38.951Z,94071.02
2019-05-19T12:08:56.890Z,94063.12
2019-05-19T12:11:25.422Z,94062.14
2019-05-19T12:13:54.069Z,94058.27
2019-05-19T12:16:22.681Z,94058.63
2019-05-19T12:18:51.370Z,94049.23
2019-05-19T12:21:20.002Z,94057.55
2019-05-19T12:23:48.499Z,94037.02
2019-05-19T12:26:23.119Z,94030.39
2019-05-19T12:28:47.376Z,94045.72
2019-05-19T12:31:16.006Z,94039.33
2019-05-19T12:33:51.811Z,94036.16
2019-05-19T12:36:15.115Z,94046.88
2019-05-19T12:38:43.756Z,94053.41
2019-05-19T12:41:12.499Z,94035.87
2019-05-19T12:43:41.078Z,94033.69
2019-05-19T12:46:16.406Z,94037.56
2019-05-19T12:48:40.173Z,94031.77
2019-05-19T12:51:08.788Z,94033.97
2019-05-19T12:53:37.388Z,94026.98
2019-05-19T12:56:06.012Z,94026.98
2019-05-19T12:58:34.572Z,94041.55
2019-05-19T13:01:03.175Z,94028.41
2019-05-19T13:03:31.807Z,94025.81
2019-05-19T13:06:03.187Z,94019.20
2019-05-19T13:08:31.719Z,94027.27
2019-05-19T13:11:00.282Z,94008.96
2019-05-19T13:13:28.906Z,94007.73
2019-05-19T13:15:57.591Z,94022.35
2019-05-19T13:18:26.152Z,94010.27
2019-05-19T13:20:54.641Z,94016.52
2019-05-19T13:23:23.381Z,94012.70
2019-05-19T13:25:52.009Z,94012.44
2019-05-19T13:28:20.497Z,94012.30
2019-05-19T13:30:49.023Z,94016.82
2019-05-19T13:33:17.662Z,93998.80
2019-05-19T13:35:46.159Z,94048.91
2019-05-19T13:38:14.859Z,94002.52
2019-05-19T13:40:43.641Z,94004.75
2019-05-19T13:43:12.122Z,94016.70
2019-05-19T13:45:40.732Z,94010.73
2019-05-19T13:48:09.356Z,94015.59
2019-05-19T13:50:37.986Z,94015.56
2019-05-19T13:53:06.650Z,94011.02
2019-05-19T13:55:35.145Z,94008.26
2019-05-19T13:58:03.791Z,94002.71
2019-05-19T14:00:32.563Z,94004.16
2019-05-19T14:03:01.063Z,94015.47
2019-05-19T14:05:29.556Z,94009.17
2019-05-19T14:07:58.289Z,94003.95
2019-05-19T14:10:26.939Z,94004.94
2019-05-19T14:12:55.430Z,94000.08
2019-05-19T14:15:24.102Z,93999.66
2019-05-19T14:17:52.675Z,94006.91
2019-05-19T14:20:21.154Z,94006.91
2019-05-19T14:22:49.822Z,94004.44
2019-05-19T14:25:18.462Z,94008.31
2019-05-19T14:27:46.947Z,94004.70
2019-05-19T14:30:16.812Z,93996.77
2019-05-19T14:32:45.460Z,93998.72
2019-05-19T14:35:14.094Z,93992.88
2019-05-19T14:37:42.619Z,93986.91
2019-05-19T14:40:11.548Z,93990.78
2019-05-19T14:42:47.800Z,93992.52
2019-05-19T14:45:16.967Z,93987.97
2019-05-19T14:47:45.627Z,93982.59
2019-05-19T14:50:14.564Z,93986.68
2019-05-19T14:52:43.308Z,93975.86
2019-05-19T14:55:11.941Z,93983.46
2019-05-19T14:57:45.078Z,93983.46
2019-05-19T15:00:11.966Z,93970.94
2019-05-19T15:02:40.592Z,93986.08
2019-05-19T15:05:09.520Z,93992.69
2019-05-19T15:07:38.048Z,93996.07
2019-05-19T15:10:07.289Z,93993.33
2019-05-19T15:12:35.923Z,93994.30
2019-05-19T15:15:08.642Z,93992.61
2019-05-19T15:17:37.142Z,93987.24
2019-05-19T15:20:07.285Z,93982.03
2019-05-19T15:22:35.965Z,93973.77
2019-05-19T15:25:05.105Z,93971.97
2019-05-19T15:27:33.596Z,93965.09
2019-05-19T15:30:12.246Z,93956.04
2019-05-19T15:32:32.488Z,93949.30
2019-05-19T15:35:01.159Z,93948.75
2019-05-19T15:37:29.815Z,93947.29
2019-05-19T15:39:58.448Z,93941.83
2019-05-19T15:42:27.044Z,93947.36
2019-05-19T15:44:55.579Z,93941.25
2019-05-19T15:47:24.328Z,93941.33
2019-05-19T15:49:52.948Z,93937.97
2019-05-19T15:52:21.554Z,93934.16
2019-05-19T15:54:50.142Z,93936.72
2019-05-19T15:57:18.772Z,93924.94
2019-05-19T15:59:47.671Z,93925.98
2019-05-19T16:02:16.292Z,93919.75
2019-05-19T16:04:44.799Z,93913.45
2019-05-19T16:07:13.470Z,93919.81
2019-05-19T16:09:42.112Z,93917.84
2019-05-19T16:12:10.620Z,93914.38
2019-05-19T16:14:39.295Z,93915.52
2019-05-19T16:17:07.891Z,93916.94
2019-05-19T16:19:36.450Z,93905.05
2019-05-19T16:22:05.324Z,93906.03
2019-05-19T16:24:33.956Z,93906.06
2019-05-19T16:27:02.596Z,93903.17
2019-05-19T16:29:31.147Z,93895.66
2019-05-19T16:31:59.705Z,93899.35
2019-05-19T16:34:28.454Z,93905.47
2019-05-19T16:36:57.004Z,93911.34
2019-05-19T16:39:25.500Z,93913.81
2019-05-19T16:41:54.143Z,93913.48
2019-05-19T16:44:22.873Z,93912.64
2019-05-19T16:46:51.387Z,93916.28
2019-05-19T16:49:19.986Z,93903.09
2019-05-19T16:51:48.722Z,93904.58
2019-05-19T16:54:18.925Z,93912.23
2019-05-19T16:56:47.554Z,93915.52
2019-05-19T16:59:16.245Z,93910.33
2019-05-19T17:01:44.804Z,93908.98
2019-05-19T17:04:13.307Z,93912.06
2019-05-19T17:06:42.064Z,93905.72
2019-05-19T17:09:10.702Z,93901.50
2019-05-19T17:11:39.190Z,93901.34
2019-05-19T17:14:07.792Z,93904.36
2019-05-19T17:16:36.422Z,93896.48
2019-05-19T17:19:05.056Z,93902.55
2019-05-19T17:21:33.718Z,93895.30
2019-05-19T17:24:02.234Z,93899.50
2019-05-19T17:26:30.863Z,93900.88
2019-05-19T17:31:30.707Z,93895.08
2019-05-19T17:33:59.272Z,93904.64
2019-05-19T17:36:27.842Z,93896.19
2019-05-19T17:38:56.434Z,93893.36
2019-05-19T17:41:24.989Z,93895.96
2019-05-19T17:43:53.631Z,93895.76
2019-05-19T17:46:22.292Z,93892.61
2019-05-19T17:48:50.781Z,93892.20
2019-05-19T17:51:19.414Z,93894.39
2019-05-19T17:53:48.247Z,93889.95
2019-05-19T17:56:16.945Z,93889.85
2019-05-19T17:58:47.042Z,93887.52
2019-05-19T18:01:15.685Z,93876.62
2019-05-19T18:03:45.043Z,93873.29
2019-05-19T18:06:13.690Z,93883.13
2019-05-19T18:08:42.228Z,93879.95
2019-05-19T18:11:10.860Z,93885.73
2019-05-19T18:13:39.357Z,93884.51
2019-05-19T18:16:07.952Z,93879.39
2019-05-19T18:18:36.586Z,93888.21
2019-05-19T18:21:05.284Z,93881.78
2019-05-19T18:23:33.881Z,93877.87
2019-05-19T18:26:02.503Z,93874.98
2019-05-19T18:28:31.171Z,93876.17
2019-05-19T18:30:59.842Z,93878.02
2019-05-19T18:33:28.342Z,93876.77
2019-05-19T18:35:56.842Z,93872.29
2019-05-19T18:38:25.514Z,93874.82
2019-05-19T18:40:54.146Z,93874.72
2019-05-19T18:43:22.722Z,93872.78
2019-05-19T18:45:51.361Z,93877.86
2019-05-19T18:48:23.160Z,93885.34
2019-05-19T18:50:50.308Z,93891.17
2019-05-19T18:53:18.939Z,93884.00
2019-05-19T18:55:47.571Z,93892.86
2019-05-19T18:58:16.104Z,93891.31
2019-05-19T19:00:44.732Z,93881.08
2019-05-19T19:03:13.377Z,93891.07
2019-05-19T19:05:42.077Z,93888.00
2019-05-19T19:08:10.644Z,93888.61
2019-05-19T19:10:39.274Z,93895.73
2019-05-19T19:13:07.874Z,93896.63
2019-05-19T19:15:36.504Z,93898.27
2019-05-19T19:18:05.200Z,93899.62
2019-05-19T19:20:34.376Z,93906.70
2019-05-19T19:23:03.165Z,93911.58
2019-05-19T19:25:31.792Z,93920.53
2019-05-19T19:28:00.462Z,93912.97
2019-05-19T19:30:29.105Z,93927.25
2019-05-19T19:32:57.729Z,93928.45
2019-05-19T19:35:26.413Z,93925.27
2019-05-19T19:37:55.054Z,93924.52
2019-05-19T19:40:31.074Z,93920.98
2019-05-19T19:43:02.815Z,93928.12
2019-05-19T19:45:31.430Z,93918.90
2019-05-19T19:48:00.114Z,93923.30
2019-05-19T19:50:28.806Z,93928.61
2019-05-19T19:52:57.414Z,93937.83
2019-05-19T19:55:25.969Z,93942.38
2019-05-19T19:57:54.730Z,93935.55
2019-05-19T20:00:37.776Z,93935.73
2019-05-19T20:03:07.114Z,93929.50
2019-05-19T20:05:35.747Z,93940.73
2019-05-19T20:08:04.874Z,93950.66
2019-05-19T20:10:33.398Z,93946.06
2019-05-19T20:13:01.968Z,93943.84
2019-05-19T20:15:30.527Z,93946.86
2019-05-19T20:17:59.120Z,93954.44
2019-05-19T20:20:27.747Z,93964.95
2019-05-19T20:22:56.404Z,93962.80
2019-05-19T20:25:25.007Z,93963.14
2019-05-19T20:27:53.637Z,93963.78
2019-05-19T20:30:35.186Z,93985.16
2019-05-19T20:32:52.667Z,93987.09
2019-05-19T20:35:21.159Z,93976.84
2019-05-19T20:37:49.858Z,93975.56
2019-05-19T20:40:18.516Z,93979.95
2019-05-19T20:42:47.099Z,93982.64
2019-05-19T20:45:15.737Z,93991.69
2019-05-19T20:47:44.331Z,93992.98
2019-05-19T20:50:13.065Z,93981.16
2019-05-19T20:52:41.790Z,93985.22
2019-05-19T20:55:10.549Z,93993.75
2019-05-19T20:57:39.040Z,93986.72
2019-05-19T21:00:09.181Z,93990.88
2019-05-19T21:02:37.862Z,94005.08
2019-05-19T21:05:06.698Z,94013.82
2019-05-19T21:07:35.201Z,94012.75
2019-05-19T21:10:05.374Z,94011.91
2019-05-19T21:12:34.011Z,93995.77
2019-05-19T21:15:02.568Z,93995.89
2019-05-19T21:17:31.210Z,94026.53
2019-05-19T21:19:59.700Z,94024.39
2019-05-19T21:22:28.327Z,94002.31
2019-05-19T21:24:56.966Z,94003.26
2019-05-19T21:27:25.542Z,94010.30
2019-05-19T21:29:54.213Z,94020.63
2019-05-19T21:32:22.738Z,94020.30
2019-05-19T21:34:51.238Z,94027.64
2019-05-19T21:37:19.905Z,94023.80
2019-05-19T21:39:48.560Z,94026.05
2019-05-19T21:42:17.023Z,94031.05
2019-05-19T21:44:45.623Z,94023.80
2019-05-19T21:47:14.271Z,94016.19
2019-05-19T21:49:42.903Z,94019.38
2019-05-19T21:52:11.505Z,94009.45
2019-05-19T21:54:40.074Z,94005.73
2019-05-19T21:57:08.803Z,94006.59
2019-05-19T21:59:37.469Z,94010.40
2019-05-19T22:02:06.574Z,94016.56
2019-05-19T22:04:35.152Z,94008.55
2019-05-19T22:07:20.602Z,94015.87
2019-05-19T22:09:49.316Z,94014.27
2019-05-19T22:12:17.957Z,94010.23
2019-05-19T22:14:46.683Z,94014.39
2019-05-19T22:17:15.175Z,94018.41
2019-05-19T22:19:43.672Z,94019.13
2019-05-19T22:22:12.344Z,94018.47
2019-05-19T22:24:40.973Z,94009.98
2019-05-19T22:27:09.537Z,94014.39
2019-05-19T22:29:38.137Z,94016.80
2019-05-19T22:32:06.769Z,94023.41
2019-05-19T22:34:35.404Z,94009.23
2019-05-19T22:37:04.018Z,94017.16
2019-05-19T22:39:32.501Z,94033.33
2019-05-19T22:42:01.176Z,94017.27
2019-05-19T22:44:29.828Z,93997.53
2019-05-19T22:46:58.390Z,94006.77
2019-05-19T22:49:27.019Z,94027.86
2019-05-19T22:51:55.607Z,94024.59
2019-05-19T22:54:24.105Z,94015.08
2019-05-19T22:56:52.734Z,94019.83
2019-05-19T22:59:21.401Z,94005.13
2019-05-19T23:01:52.117Z,94025.39
2019-05-19T23:04:20.384Z,94034.02
2019-05-19T23:06:49.010Z,94019.84
2019-05-19T23:09:17.753Z,94017.74
2019-05-19T23:11:46.343Z,94032.49
2019-05-19T23:14:14.901Z,94021.08
2019-05-19T23:16:43.528Z,94016.38
2019-05-19T23:19:12.197Z,94024.96
2019-05-19T23:21:40.688Z,94027.28
2019-05-19T23:24:09.248Z,94043.48
2019-05-19T23:26:37.937Z,94042.22
2019-05-19T23:29:06.569Z,94035.69
2019-05-19T23:31:35.202Z,94045.03
2019-05-19T23:34:03.800Z,94021.92
2019-05-19T23:36:32.362Z,94012.80
2019-05-19T23:39:00.853Z,94016.66
2019-05-19T23:41:29.533Z,94032.64
2019-05-19T23:43:58.170Z,94027.23
2019-05-19T23:46:26.660Z,94020.03
2019-05-19T23:48:55.178Z,94031.43
2019-05-19T23:51:23.807Z,94043.71
2019-05-19T23:53:52.439Z,94047.09
2019-05-19T23:56:21.121Z,94054.17
2019-05-19T23:58:49.617Z,94055.28
